sensor_id;sensor_type;location;lat;lon;timestamp;P1;durP1;ratioP1;P2;durP2;ratioP2
6259;SDS011;3163;51.516;4.000;2023-07-08T00:00:25;1.95;;;1.85;;
6259;SDS011;3163;51.516;4.000;2023-07-08T00:02:51;3.22;;;1.75;;
6259;SDS011;3163;51.516;4.000;2023-07-08T00:05:18;2.22;;;1.77;;
6259;SDS011;3163;51.516;4.000;2023-07-08T00:07:45;3.53;;;1.95;;
6259;SDS011;3163;51.516;4.000;2023-07-08T00:10:22;3.00;;;1.90;;
6259;SDS011;3163;51.516;4.000;2023-07-08T00:12:50;1.92;;;1.70;;
6259;SDS011;3163;51.516;4.000;2023-07-08T00:15:18;1.85;;;1.75;;
6259;SDS011;3163;51.516;4.000;2023-07-08T00:17:47;5.90;;;2.33;;
6259;SDS011;3163;51.516;4.000;2023-07-08T00:20:14;3.22;;;2.13;;
6259;SDS011;3163;51.516;4.000;2023-07-08T00:22:48;2.25;;;2.05;;
6259;SDS011;3163;51.516;4.000;2023-07-08T00:25:17;1.95;;;1.83;;
6259;SDS011;3163;51.516;4.000;2023-07-08T00:27:46;2.00;;;1.52;;
6259;SDS011;3163;51.516;4.000;2023-07-08T00:30:19;2.42;;;2.13;;
6259;SDS011;3163;51.516;4.000;2023-07-08T00:32:47;3.05;;;2.00;;
6259;SDS011;3163;51.516;4.000;2023-07-08T00:35:19;2.25;;;2.05;;
6259;SDS011;3163;51.516;4.000;2023-07-08T00:38:15;3.97;;;2.00;;
6259;SDS011;3163;51.516;4.000;2023-07-08T00:40:57;8.75;;;2.08;;
6259;SDS011;3163;51.516;4.000;2023-07-08T00:43:44;1.77;;;1.65;;
6259;SDS011;3163;51.516;4.000;2023-07-08T00:51:33;1.80;;;1.67;;
6259;SDS011;3163;51.516;4.000;2023-07-08T00:53:59;2.28;;;1.85;;
6259;SDS011;3163;51.516;4.000;2023-07-08T00:56:26;2.70;;;2.13;;
6259;SDS011;3163;51.516;4.000;2023-07-08T00:59:00;1.60;;;1.50;;
6259;SDS011;3163;51.516;4.000;2023-07-08T01:01:36;4.38;;;1.92;;
6259;SDS011;3163;51.516;4.000;2023-07-08T01:06:41;1.95;;;1.60;;
6259;SDS011;3163;51.516;4.000;2023-07-08T01:09:10;1.98;;;1.75;;
6259;SDS011;3163;51.516;4.000;2023-07-08T01:11:39;2.15;;;1.95;;
6259;SDS011;3163;51.516;4.000;2023-07-08T01:14:06;2.45;;;2.25;;
6259;SDS011;3163;51.516;4.000;2023-07-08T01:16:38;2.38;;;1.98;;
6259;SDS011;3163;51.516;4.000;2023-07-08T01:19:06;3.58;;;2.20;;
6259;SDS011;3163;51.516;4.000;2023-07-08T01:21:44;1.60;;;1.50;;
6259;SDS011;3163;51.516;4.000;2023-07-08T01:24:29;2.28;;;1.92;;
6259;SDS011;3163;51.516;4.000;2023-07-08T01:26:57;2.28;;;1.75;;
6259;SDS011;3163;51.516;4.000;2023-07-08T01:29:23;1.73;;;1.63;;
6259;SDS011;3163;51.516;4.000;2023-07-08T01:31:48;1.75;;;1.65;;
6259;SDS011;3163;51.516;4.000;2023-07-08T01:34:15;4.18;;;1.95;;
6259;SDS011;3163;51.516;4.000;2023-07-08T01:36:43;2.10;;;2.00;;
6259;SDS011;3163;51.516;4.000;2023-07-08T01:39:13;3.33;;;1.45;;
6259;SDS011;3163;51.516;4.000;2023-07-08T01:41:43;2.25;;;1.75;;
6259;SDS011;3163;51.516;4.000;2023-07-08T01:46:55;3.17;;;2.67;;
6259;SDS011;3163;51.516;4.000;2023-07-08T01:49:24;2.88;;;1.60;;
6259;SDS011;3163;51.516;4.000;2023-07-08T01:51:50;2.38;;;2.17;;
6259;SDS011;3163;51.516;4.000;2023-07-08T01:54:16;2.20;;;1.67;;
6259;SDS011;3163;51.516;4.000;2023-07-08T01:56:41;2.20;;;1.92;;
6259;SDS011;3163;51.516;4.000;2023-07-08T01:59:07;2.33;;;1.90;;
6259;SDS011;3163;51.516;4.000;2023-07-08T02:01:33;2.28;;;2.08;;
6259;SDS011;3163;51.516;4.000;2023-07-08T02:03:58;3.20;;;2.08;;
6259;SDS011;3163;51.516;4.000;2023-07-08T02:06:24;2.25;;;1.67;;
6259;SDS011;3163;51.516;4.000;2023-07-08T02:08:50;2.45;;;2.25;;
6259;SDS011;3163;51.516;4.000;2023-07-08T02:11:16;2.88;;;2.10;;
6259;SDS011;3163;51.516;4.000;2023-07-08T02:13:42;2.10;;;1.95;;
6259;SDS011;3163;51.516;4.000;2023-07-08T02:16:07;2.65;;;2.45;;
6259;SDS011;3163;51.516;4.000;2023-07-08T02:18:33;2.00;;;1.77;;
6259;SDS011;3163;51.516;4.000;2023-07-08T02:20:59;1.63;;;1.52;;
6259;SDS011;3163;51.516;4.000;2023-07-08T02:23:25;2.22;;;1.77;;
6259;SDS011;3163;51.516;4.000;2023-07-08T02:25:51;1.75;;;1.65;;
6259;SDS011;3163;51.516;4.000;2023-07-08T02:28:17;1.80;;;1.70;;
6259;SDS011;3163;51.516;4.000;2023-07-08T02:30:43;3.38;;;2.13;;
6259;SDS011;3163;51.516;4.000;2023-07-08T02:33:11;6.43;;;2.30;;
6259;SDS011;3163;51.516;4.000;2023-07-08T02:35:37;2.47;;;1.88;;
6259;SDS011;3163;51.516;4.000;2023-07-08T02:38:03;2.25;;;2.03;;
6259;SDS011;3163;51.516;4.000;2023-07-08T02:40:29;1.70;;;1.60;;
6259;SDS011;3163;51.516;4.000;2023-07-08T02:42:55;2.53;;;1.50;;
6259;SDS011;3163;51.516;4.000;2023-07-08T02:45:20;6.38;;;2.50;;
6259;SDS011;3163;51.516;4.000;2023-07-08T02:47:46;1.60;;;1.50;;
6259;SDS011;3163;51.516;4.000;2023-07-08T02:50:12;4.88;;;2.47;;
6259;SDS011;3163;51.516;4.000;2023-07-08T02:52:38;2.42;;;1.73;;
6259;SDS011;3163;51.516;4.000;2023-07-08T02:55:05;3.38;;;2.25;;
6259;SDS011;3163;51.516;4.000;2023-07-08T02:57:31;3.92;;;3.30;;
6259;SDS011;3163;51.516;4.000;2023-07-08T02:59:56;1.77;;;1.67;;
6259;SDS011;3163;51.516;4.000;2023-07-08T03:02:22;1.70;;;1.50;;
6259;SDS011;3163;51.516;4.000;2023-07-08T03:04:48;1.83;;;1.60;;
6259;SDS011;3163;51.516;4.000;2023-07-08T03:07:16;1.80;;;1.70;;
6259;SDS011;3163;51.516;4.000;2023-07-08T03:09:42;2.42;;;1.70;;
6259;SDS011;3163;51.516;4.000;2023-07-08T03:12:09;1.60;;;1.50;;
6259;SDS011;3163;51.516;4.000;2023-07-08T03:14:36;1.42;;;1.33;;
6259;SDS011;3163;51.516;4.000;2023-07-08T03:17:02;1.60;;;1.50;;
6259;SDS011;3163;51.516;4.000;2023-07-08T03:19:27;2.28;;;2.00;;
6259;SDS011;3163;51.516;4.000;2023-07-08T03:21:53;3.10;;;2.35;;
6259;SDS011;3163;51.516;4.000;2023-07-08T03:24:19;3.60;;;1.83;;
6259;SDS011;3163;51.516;4.000;2023-07-08T03:26:45;3.53;;;1.85;;
6259;SDS011;3163;51.516;4.000;2023-07-08T03:29:13;4.63;;;1.80;;
6259;SDS011;3163;51.516;4.000;2023-07-08T03:31:41;3.85;;;2.30;;
6259;SDS011;3163;51.516;4.000;2023-07-08T03:34:09;2.35;;;2.15;;
6259;SDS011;3163;51.516;4.000;2023-07-08T03:36:36;1.88;;;1.77;;
6259;SDS011;3163;51.516;4.000;2023-07-08T03:39:13;2.08;;;1.92;;
6259;SDS011;3163;51.516;4.000;2023-07-08T03:41:40;2.17;;;2.08;;
6259;SDS011;3163;51.516;4.000;2023-07-08T03:44:06;1.92;;;1.75;;
6259;SDS011;3163;51.516;4.000;2023-07-08T03:46:31;2.05;;;1.90;;
6259;SDS011;3163;51.516;4.000;2023-07-08T03:48:57;1.75;;;1.65;;
6259;SDS011;3163;51.516;4.000;2023-07-08T03:51:24;1.30;;;1.20;;
6259;SDS011;3163;51.516;4.000;2023-07-08T03:54:01;3.25;;;1.63;;
6259;SDS011;3163;51.516;4.000;2023-07-08T03:56:27;1.48;;;1.38;;
6259;SDS011;3163;51.516;4.000;2023-07-08T03:58:53;1.33;;;1.23;;
6259;SDS011;3163;51.516;4.000;2023-07-08T04:01:21;3.42;;;3.10;;
6259;SDS011;3163;51.516;4.000;2023-07-08T04:03:49;2.72;;;2.17;;
6259;SDS011;3163;51.516;4.000;2023-07-08T04:06:19;1.50;;;1.50;;
6259;SDS011;3163;51.516;4.000;2023-07-08T04:08:46;4.28;;;2.80;;
6259;SDS011;3163;51.516;4.000;2023-07-08T04:11:12;1.80;;;1.67;;
6259;SDS011;3163;51.516;4.000;2023-07-08T04:13:40;1.73;;;1.63;;
6259;SDS011;3163;51.516;4.000;2023-07-08T04:16:05;1.60;;;1.50;;
6259;SDS011;3163;51.516;4.000;2023-07-08T04:18:32;2.08;;;1.88;;
6259;SDS011;3163;51.516;4.000;2023-07-08T04:20:58;1.35;;;1.35;;
6259;SDS011;3163;51.516;4.000;2023-07-08T04:23:24;2.15;;;1.95;;
6259;SDS011;3163;51.516;4.000;2023-07-08T04:25:52;1.95;;;1.75;;
6259;SDS011;3163;51.516;4.000;2023-07-08T04:28:20;1.75;;;1.48;;
6259;SDS011;3163;51.516;4.000;2023-07-08T04:30:46;2.47;;;2.00;;
6259;SDS011;3163;51.516;4.000;2023-07-08T04:33:13;2.15;;;1.88;;
6259;SDS011;3163;51.516;4.000;2023-07-08T04:35:40;1.40;;;1.30;;
6259;SDS011;3163;51.516;4.000;2023-07-08T04:38:08;2.00;;;1.20;;
6259;SDS011;3163;51.516;4.000;2023-07-08T04:40:44;1.55;;;1.45;;
6259;SDS011;3163;51.516;4.000;2023-07-08T04:43:10;2.85;;;1.92;;
6259;SDS011;3163;51.516;4.000;2023-07-08T04:45:36;3.70;;;1.50;;
6259;SDS011;3163;51.516;4.000;2023-07-08T04:48:03;2.95;;;1.90;;
6259;SDS011;3163;51.516;4.000;2023-07-08T04:50:37;1.77;;;1.67;;
6259;SDS011;3163;51.516;4.000;2023-07-08T04:53:06;2.58;;;1.95;;
6259;SDS011;3163;51.516;4.000;2023-07-08T04:55:32;3.17;;;1.70;;
6259;SDS011;3163;51.516;4.000;2023-07-08T04:57:58;2.42;;;1.75;;
6259;SDS011;3163;51.516;4.000;2023-07-08T05:00:24;1.63;;;1.50;;
6259;SDS011;3163;51.516;4.000;2023-07-08T05:02:50;3.17;;;2.63;;
6259;SDS011;3163;51.516;4.000;2023-07-08T05:05:16;2.70;;;2.45;;
6259;SDS011;3163;51.516;4.000;2023-07-08T05:07:42;1.80;;;1.70;;
6259;SDS011;3163;51.516;4.000;2023-07-08T05:10:08;2.25;;;2.10;;
6259;SDS011;3163;51.516;4.000;2023-07-08T05:12:34;3.00;;;1.58;;
6259;SDS011;3163;51.516;4.000;2023-07-08T05:14:59;1.90;;;1.70;;
6259;SDS011;3163;51.516;4.000;2023-07-08T05:17:26;1.50;;;1.40;;
6259;SDS011;3163;51.516;4.000;2023-07-08T05:19:52;1.65;;;1.55;;
6259;SDS011;3163;51.516;4.000;2023-07-08T05:22:19;2.53;;;2.03;;
6259;SDS011;3163;51.516;4.000;2023-07-08T05:24:50;3.38;;;2.15;;
6259;SDS011;3163;51.516;4.000;2023-07-08T05:27:17;1.63;;;1.55;;
6259;SDS011;3163;51.516;4.000;2023-07-08T05:29:45;1.80;;;1.70;;
6259;SDS011;3163;51.516;4.000;2023-07-08T05:32:11;1.58;;;1.48;;
6259;SDS011;3163;51.516;4.000;2023-07-08T05:34:37;4.00;;;2.55;;
6259;SDS011;3163;51.516;4.000;2023-07-08T05:37:03;2.20;;;2.00;;
6259;SDS011;3163;51.516;4.000;2023-07-08T05:39:29;3.58;;;2.20;;
6259;SDS011;3163;51.516;4.000;2023-07-08T05:41:56;1.90;;;1.80;;
6259;SDS011;3163;51.516;4.000;2023-07-08T05:44:21;2.47;;;1.60;;
6259;SDS011;3163;51.516;4.000;2023-07-08T05:46:47;1.48;;;1.40;;
6259;SDS011;3163;51.516;4.000;2023-07-08T05:49:14;2.40;;;2.20;;
6259;SDS011;3163;51.516;4.000;2023-07-08T05:51:40;3.08;;;2.60;;
6259;SDS011;3163;51.516;4.000;2023-07-08T05:54:05;2.50;;;2.28;;
6259;SDS011;3163;51.516;4.000;2023-07-08T05:56:31;2.00;;;1.85;;
6259;SDS011;3163;51.516;4.000;2023-07-08T05:58:57;2.20;;;2.10;;
6259;SDS011;3163;51.516;4.000;2023-07-08T06:01:23;2.45;;;2.25;;
6259;SDS011;3163;51.516;4.000;2023-07-08T06:03:48;2.70;;;2.33;;
6259;SDS011;3163;51.516;4.000;2023-07-08T06:06:15;1.95;;;1.52;;
6259;SDS011;3163;51.516;4.000;2023-07-08T06:08:40;2.78;;;2.00;;
6259;SDS011;3163;51.516;4.000;2023-07-08T06:11:06;3.15;;;2.25;;
6259;SDS011;3163;51.516;4.000;2023-07-08T06:13:32;2.90;;;2.67;;
6259;SDS011;3163;51.516;4.000;2023-07-08T06:15:58;1.48;;;1.38;;
6259;SDS011;3163;51.516;4.000;2023-07-08T06:18:23;2.17;;;1.98;;
6259;SDS011;3163;51.516;4.000;2023-07-08T06:20:53;2.97;;;2.15;;
6259;SDS011;3163;51.516;4.000;2023-07-08T06:23:19;2.72;;;1.52;;
6259;SDS011;3163;51.516;4.000;2023-07-08T06:25:44;6.75;;;3.45;;
6259;SDS011;3163;51.516;4.000;2023-07-08T06:28:10;1.85;;;1.75;;
6259;SDS011;3163;51.516;4.000;2023-07-08T06:30:36;1.88;;;1.60;;
6259;SDS011;3163;51.516;4.000;2023-07-08T06:33:02;1.73;;;1.63;;
6259;SDS011;3163;51.516;4.000;2023-07-08T06:35:28;4.75;;;2.38;;
6259;SDS011;3163;51.516;4.000;2023-07-08T06:37:54;2.58;;;2.38;;
6259;SDS011;3163;51.516;4.000;2023-07-08T06:40:20;2.00;;;1.83;;
6259;SDS011;3163;51.516;4.000;2023-07-08T06:42:46;2.08;;;1.63;;
6259;SDS011;3163;51.516;4.000;2023-07-08T06:45:11;1.50;;;1.45;;
6259;SDS011;3163;51.516;4.000;2023-07-08T06:47:37;1.73;;;1.63;;
6259;SDS011;3163;51.516;4.000;2023-07-08T06:50:03;2.55;;;2.28;;
6259;SDS011;3163;51.516;4.000;2023-07-08T06:52:30;4.35;;;3.95;;
6259;SDS011;3163;51.516;4.000;2023-07-08T06:55:09;2.70;;;2.50;;
6259;SDS011;3163;51.516;4.000;2023-07-08T06:57:36;4.55;;;4.10;;
6259;SDS011;3163;51.516;4.000;2023-07-08T07:00:03;2.75;;;2.55;;
6259;SDS011;3163;51.516;4.000;2023-07-08T07:02:33;2.53;;;2.33;;
6259;SDS011;3163;51.516;4.000;2023-07-08T07:04:59;3.60;;;2.97;;
6259;SDS011;3163;51.516;4.000;2023-07-08T07:07:25;1.88;;;1.77;;
6259;SDS011;3163;51.516;4.000;2023-07-08T07:09:51;1.65;;;1.55;;
6259;SDS011;3163;51.516;4.000;2023-07-08T07:12:16;4.78;;;3.58;;
6259;SDS011;3163;51.516;4.000;2023-07-08T07:14:43;5.55;;;3.55;;
6259;SDS011;3163;51.516;4.000;2023-07-08T07:17:08;3.03;;;2.03;;
6259;SDS011;3163;51.516;4.000;2023-07-08T07:19:34;2.22;;;2.03;;
6259;SDS011;3163;51.516;4.000;2023-07-08T07:22:00;4.55;;;2.35;;
6259;SDS011;3163;51.516;4.000;2023-07-08T07:24:25;4.18;;;3.67;;
6259;SDS011;3163;51.516;4.000;2023-07-08T07:26:51;2.17;;;2.03;;
6259;SDS011;3163;51.516;4.000;2023-07-08T07:29:17;4.35;;;3.95;;
6259;SDS011;3163;51.516;4.000;2023-07-08T07:31:43;4.75;;;2.75;;
6259;SDS011;3163;51.516;4.000;2023-07-08T07:34:09;1.98;;;1.80;;
6259;SDS011;3163;51.516;4.000;2023-07-08T07:36:36;2.00;;;1.90;;
6259;SDS011;3163;51.516;4.000;2023-07-08T07:39:02;1.70;;;1.60;;
6259;SDS011;3163;51.516;4.000;2023-07-08T07:41:28;1.92;;;1.77;;
6259;SDS011;3163;51.516;4.000;2023-07-08T07:43:53;5.43;;;3.20;;
6259;SDS011;3163;51.516;4.000;2023-07-08T07:46:19;2.17;;;1.98;;
6259;SDS011;3163;51.516;4.000;2023-07-08T07:48:45;3.53;;;2.83;;
6259;SDS011;3163;51.516;4.000;2023-07-08T07:51:10;4.07;;;2.85;;
6259;SDS011;3163;51.516;4.000;2023-07-08T07:53:37;8.27;;;4.65;;
6259;SDS011;3163;51.516;4.000;2023-07-08T07:56:03;3.53;;;3.20;;
6259;SDS011;3163;51.516;4.000;2023-07-08T07:58:29;2.45;;;2.20;;
6259;SDS011;3163;51.516;4.000;2023-07-08T08:00:56;4.15;;;3.60;;
6259;SDS011;3163;51.516;4.000;2023-07-08T08:03:22;4.50;;;3.75;;
6259;SDS011;3163;51.516;4.000;2023-07-08T08:05:48;5.13;;;3.92;;
6259;SDS011;3163;51.516;4.000;2023-07-08T08:08:14;8.07;;;5.38;;
6259;SDS011;3163;51.516;4.000;2023-07-08T08:10:41;3.05;;;2.75;;
6259;SDS011;3163;51.516;4.000;2023-07-08T08:13:08;7.22;;;3.42;;
6259;SDS011;3163;51.516;4.000;2023-07-08T08:15:34;5.60;;;3.90;;
6259;SDS011;3163;51.516;4.000;2023-07-08T08:18:00;4.32;;;3.08;;
6259;SDS011;3163;51.516;4.000;2023-07-08T08:20:27;3.85;;;3.22;;
6259;SDS011;3163;51.516;4.000;2023-07-08T08:22:53;5.78;;;4.80;;
6259;SDS011;3163;51.516;4.000;2023-07-08T08:25:20;2.10;;;1.90;;
6259;SDS011;3163;51.516;4.000;2023-07-08T08:27:47;8.20;;;4.90;;
6259;SDS011;3163;51.516;4.000;2023-07-08T08:30:12;5.38;;;3.55;;
6259;SDS011;3163;51.516;4.000;2023-07-08T08:32:38;4.22;;;3.67;;
6259;SDS011;3163;51.516;4.000;2023-07-08T08:35:04;6.05;;;3.03;;
6259;SDS011;3163;51.516;4.000;2023-07-08T08:37:30;7.47;;;5.65;;
6259;SDS011;3163;51.516;4.000;2023-07-08T08:39:55;8.57;;;4.60;;
6259;SDS011;3163;51.516;4.000;2023-07-08T08:44:55;2.63;;;2.10;;
6259;SDS011;3163;51.516;4.000;2023-07-08T08:47:39;5.85;;;3.85;;
6259;SDS011;3163;51.516;4.000;2023-07-08T08:52:42;2.65;;;2.33;;
6259;SDS011;3163;51.516;4.000;2023-07-08T08:55:11;6.30;;;3.97;;
6259;SDS011;3163;51.516;4.000;2023-07-08T08:57:42;6.80;;;3.30;;
6259;SDS011;3163;51.516;4.000;2023-07-08T09:00:18;5.45;;;3.65;;
6259;SDS011;3163;51.516;4.000;2023-07-08T09:03:08;2.35;;;2.10;;
6259;SDS011;3163;51.516;4.000;2023-07-08T09:05:38;5.53;;;4.35;;
6259;SDS011;3163;51.516;4.000;2023-07-08T09:08:05;6.27;;;4.17;;
6259;SDS011;3163;51.516;4.000;2023-07-08T09:13:30;3.67;;;2.83;;
6259;SDS011;3163;51.516;4.000;2023-07-08T09:16:09;4.18;;;3.38;;
6259;SDS011;3163;51.516;4.000;2023-07-08T09:18:52;5.93;;;3.78;;
6259;SDS011;3163;51.516;4.000;2023-07-08T09:24:15;5.97;;;3.97;;
6259;SDS011;3163;51.516;4.000;2023-07-08T09:26:45;3.15;;;2.38;;
6259;SDS011;3163;51.516;4.000;2023-07-08T09:29:13;5.45;;;4.03;;
6259;SDS011;3163;51.516;4.000;2023-07-08T09:31:39;7.40;;;3.83;;
6259;SDS011;3163;51.516;4.000;2023-07-08T09:34:17;3.75;;;2.97;;
6259;SDS011;3163;51.516;4.000;2023-07-08T09:36:46;2.40;;;2.20;;
6259;SDS011;3163;51.516;4.000;2023-07-08T09:39:13;2.65;;;2.25;;
6259;SDS011;3163;51.516;4.000;2023-07-08T09:41:41;6.03;;;4.22;;
6259;SDS011;3163;51.516;4.000;2023-07-08T09:44:27;8.05;;;4.32;;
6259;SDS011;3163;51.516;4.000;2023-07-08T09:46:56;6.65;;;3.50;;
6259;SDS011;3163;51.516;4.000;2023-07-08T09:49:34;9.68;;;7.40;;
6259;SDS011;3163;51.516;4.000;2023-07-08T09:52:00;8.93;;;6.13;;
6259;SDS011;3163;51.516;4.000;2023-07-08T09:54:28;9.05;;;5.57;;
6259;SDS011;3163;51.516;4.000;2023-07-08T09:57:00;5.22;;;4.45;;
6259;SDS011;3163;51.516;4.000;2023-07-08T09:59:38;8.57;;;5.43;;
6259;SDS011;3163;51.516;4.000;2023-07-08T10:04:55;4.75;;;3.58;;
6259;SDS011;3163;51.516;4.000;2023-07-08T10:07:23;4.93;;;3.17;;
6259;SDS011;3163;51.516;4.000;2023-07-08T10:09:52;4.32;;;3.10;;
6259;SDS011;3163;51.516;4.000;2023-07-08T10:12:22;3.63;;;3.25;;
6259;SDS011;3163;51.516;4.000;2023-07-08T10:14:59;14.15;;;7.03;;
6259;SDS011;3163;51.516;4.000;2023-07-08T10:17:28;6.85;;;5.47;;
6259;SDS011;3163;51.516;4.000;2023-07-08T10:19:55;3.40;;;3.10;;
6259;SDS011;3163;51.516;4.000;2023-07-08T10:22:33;3.50;;;3.00;;
6259;SDS011;3163;51.516;4.000;2023-07-08T10:30:49;3.97;;;3.47;;
6259;SDS011;3163;51.516;4.000;2023-07-08T10:36:42;3.72;;;3.22;;
6259;SDS011;3163;51.516;4.000;2023-07-08T10:39:54;5.90;;;4.50;;
6259;SDS011;3163;51.516;4.000;2023-07-08T10:42:53;6.75;;;4.45;;
6259;SDS011;3163;51.516;4.000;2023-07-08T10:45:37;6.18;;;2.95;;
6259;SDS011;3163;51.516;4.000;2023-07-08T10:51:09;5.65;;;3.55;;
6259;SDS011;3163;51.516;4.000;2023-07-08T10:53:51;4.57;;;3.20;;
6259;SDS011;3163;51.516;4.000;2023-07-08T10:56:41;2.92;;;2.63;;
6259;SDS011;3163;51.516;4.000;2023-07-08T11:02:15;4.65;;;3.30;;
6259;SDS011;3163;51.516;4.000;2023-07-08T11:07:45;6.75;;;4.07;;
6259;SDS011;3163;51.516;4.000;2023-07-08T11:11:07;3.72;;;3.35;;
6259;SDS011;3163;51.516;4.000;2023-07-08T11:13:19;4.10;;;3.40;;
6259;SDS011;3163;51.516;4.000;2023-07-08T11:15:56;3.95;;;3.10;;
6259;SDS011;3163;51.516;4.000;2023-07-08T11:21:10;3.05;;;2.83;;
6259;SDS011;3163;51.516;4.000;2023-07-08T11:23:43;3.25;;;3.00;;
6259;SDS011;3163;51.516;4.000;2023-07-08T11:26:27;2.80;;;2.60;;
6259;SDS011;3163;51.516;4.000;2023-07-08T11:29:02;3.50;;;2.90;;
6259;SDS011;3163;51.516;4.000;2023-07-08T11:31:34;2.63;;;2.40;;
6259;SDS011;3163;51.516;4.000;2023-07-08T11:34:00;3.33;;;2.85;;
6259;SDS011;3163;51.516;4.000;2023-07-08T11:36:27;7.13;;;3.53;;
6259;SDS011;3163;51.516;4.000;2023-07-08T11:38:55;5.80;;;2.97;;
6259;SDS011;3163;51.516;4.000;2023-07-08T11:41:23;5.55;;;3.05;;
6259;SDS011;3163;51.516;4.000;2023-07-08T11:44:03;4.45;;;3.30;;
6259;SDS011;3163;51.516;4.000;2023-07-08T11:46:32;2.40;;;2.20;;
6259;SDS011;3163;51.516;4.000;2023-07-08T11:49:03;3.55;;;2.83;;
6259;SDS011;3163;51.516;4.000;2023-07-08T11:51:38;3.40;;;3.08;;
6259;SDS011;3163;51.516;4.000;2023-07-08T11:54:20;4.70;;;3.20;;
6259;SDS011;3163;51.516;4.000;2023-07-08T11:57:05;4.10;;;2.78;;
6259;SDS011;3163;51.516;4.000;2023-07-08T11:59:37;3.50;;;2.92;;
6259;SDS011;3163;51.516;4.000;2023-07-08T12:02:18;4.07;;;3.55;;
6259;SDS011;3163;51.516;4.000;2023-07-08T12:04:56;2.78;;;2.58;;
6259;SDS011;3163;51.516;4.000;2023-07-08T12:07:40;6.97;;;3.60;;
6259;SDS011;3163;51.516;4.000;2023-07-08T12:10:17;6.28;;;3.58;;
6259;SDS011;3163;51.516;4.000;2023-07-08T12:12:51;5.10;;;3.17;;
6259;SDS011;3163;51.516;4.000;2023-07-08T12:17:50;3.88;;;3.00;;
6259;SDS011;3163;51.516;4.000;2023-07-08T12:20:23;4.07;;;3.38;;
6259;SDS011;3163;51.516;4.000;2023-07-08T12:22:52;3.60;;;2.97;;
6259;SDS011;3163;51.516;4.000;2023-07-08T12:25:25;3.17;;;2.75;;
6259;SDS011;3163;51.516;4.000;2023-07-08T12:27:56;2.47;;;2.28;;
6259;SDS011;3163;51.516;4.000;2023-07-08T12:30:22;4.50;;;3.00;;
6259;SDS011;3163;51.516;4.000;2023-07-08T12:32:48;3.22;;;2.85;;
6259;SDS011;3163;51.516;4.000;2023-07-08T12:35:35;5.82;;;3.47;;
6259;SDS011;3163;51.516;4.000;2023-07-08T12:38:02;4.18;;;2.72;;
6259;SDS011;3163;51.516;4.000;2023-07-08T12:40:43;6.07;;;3.15;;
6259;SDS011;3163;51.516;4.000;2023-07-08T12:43:09;3.60;;;3.00;;
6259;SDS011;3163;51.516;4.000;2023-07-08T12:45:35;4.88;;;3.55;;
6259;SDS011;3163;51.516;4.000;2023-07-08T12:48:01;3.38;;;2.63;;
6259;SDS011;3163;51.516;4.000;2023-07-08T12:50:28;3.42;;;2.58;;
6259;SDS011;3163;51.516;4.000;2023-07-08T12:52:53;6.50;;;2.50;;
6259;SDS011;3163;51.516;4.000;2023-07-08T12:55:19;2.67;;;2.47;;
6259;SDS011;3163;51.516;4.000;2023-07-08T12:57:46;2.70;;;2.50;;
6259;SDS011;3163;51.516;4.000;2023-07-08T13:00:21;3.85;;;2.38;;
6259;SDS011;3163;51.516;4.000;2023-07-08T13:02:49;2.50;;;2.33;;
6259;SDS011;3163;51.516;4.000;2023-07-08T13:05:28;2.45;;;2.25;;
6259;SDS011;3163;51.516;4.000;2023-07-08T13:07:54;2.50;;;2.35;;
6259;SDS011;3163;51.516;4.000;2023-07-08T13:10:23;2.67;;;2.47;;
6259;SDS011;3163;51.516;4.000;2023-07-08T13:12:51;2.67;;;2.20;;
6259;SDS011;3163;51.516;4.000;2023-07-08T13:15:23;5.55;;;3.15;;
6259;SDS011;3163;51.516;4.000;2023-07-08T13:17:52;6.22;;;2.80;;
6259;SDS011;3163;51.516;4.000;2023-07-08T13:20:19;3.95;;;2.67;;
6259;SDS011;3163;51.516;4.000;2023-07-08T13:22:54;4.07;;;2.60;;
6259;SDS011;3163;51.516;4.000;2023-07-08T13:25:25;4.13;;;3.20;;
6259;SDS011;3163;51.516;4.000;2023-07-08T13:28:11;4.22;;;2.83;;
6259;SDS011;3163;51.516;4.000;2023-07-08T13:30:55;2.70;;;2.50;;
6259;SDS011;3163;51.516;4.000;2023-07-08T13:33:32;2.65;;;2.45;;
6259;SDS011;3163;51.516;4.000;2023-07-08T13:36:03;2.78;;;2.42;;
6259;SDS011;3163;51.516;4.000;2023-07-08T13:38:35;3.58;;;2.63;;
6259;SDS011;3163;51.516;4.000;2023-07-08T13:41:03;4.63;;;2.95;;
6259;SDS011;3163;51.516;4.000;2023-07-08T13:43:33;3.05;;;2.58;;
6259;SDS011;3163;51.516;4.000;2023-07-08T13:46:01;2.83;;;2.60;;
6259;SDS011;3163;51.516;4.000;2023-07-08T13:48:33;4.07;;;2.97;;
6259;SDS011;3163;51.516;4.000;2023-07-08T13:51:07;3.70;;;2.90;;
6259;SDS011;3163;51.516;4.000;2023-07-08T13:53:50;2.78;;;2.58;;
6259;SDS011;3163;51.516;4.000;2023-07-08T13:56:22;3.08;;;2.40;;
6259;SDS011;3163;51.516;4.000;2023-07-08T13:59:02;4.28;;;3.10;;
6259;SDS011;3163;51.516;4.000;2023-07-08T14:01:36;4.47;;;2.95;;
6259;SDS011;3163;51.516;4.000;2023-07-08T14:04:04;3.80;;;2.60;;
6259;SDS011;3163;51.516;4.000;2023-07-08T14:06:35;4.85;;;3.20;;
6259;SDS011;3163;51.516;4.000;2023-07-08T14:09:10;2.90;;;2.70;;
6259;SDS011;3163;51.516;4.000;2023-07-08T14:11:36;2.78;;;2.50;;
6259;SDS011;3163;51.516;4.000;2023-07-08T14:14:02;4.03;;;3.17;;
6259;SDS011;3163;51.516;4.000;2023-07-08T14:16:29;4.50;;;2.88;;
6259;SDS011;3163;51.516;4.000;2023-07-08T14:18:59;3.42;;;3.13;;
6259;SDS011;3163;51.516;4.000;2023-07-08T14:21:34;3.97;;;2.85;;
6259;SDS011;3163;51.516;4.000;2023-07-08T14:24:01;4.93;;;3.50;;
6259;SDS011;3163;51.516;4.000;2023-07-08T14:26:28;4.80;;;2.78;;
6259;SDS011;3163;51.516;4.000;2023-07-08T14:28:54;3.65;;;2.88;;
6259;SDS011;3163;51.516;4.000;2023-07-08T14:31:21;3.60;;;3.17;;
6259;SDS011;3163;51.516;4.000;2023-07-08T14:33:49;6.10;;;2.50;;
6259;SDS011;3163;51.516;4.000;2023-07-08T14:36:17;4.90;;;3.38;;
6259;SDS011;3163;51.516;4.000;2023-07-08T14:38:43;4.68;;;3.20;;
6259;SDS011;3163;51.516;4.000;2023-07-08T14:41:09;3.33;;;3.03;;
6259;SDS011;3163;51.516;4.000;2023-07-08T14:43:35;4.18;;;3.00;;
6259;SDS011;3163;51.516;4.000;2023-07-08T14:46:13;4.78;;;3.50;;
6259;SDS011;3163;51.516;4.000;2023-07-08T14:48:44;3.20;;;2.72;;
6259;SDS011;3163;51.516;4.000;2023-07-08T14:51:10;4.75;;;3.03;;
6259;SDS011;3163;51.516;4.000;2023-07-08T14:53:38;2.65;;;2.45;;
6259;SDS011;3163;51.516;4.000;2023-07-08T14:56:15;3.75;;;3.08;;
6259;SDS011;3163;51.516;4.000;2023-07-08T14:58:43;5.47;;;3.00;;
6259;SDS011;3163;51.516;4.000;2023-07-08T15:01:13;3.33;;;3.03;;
6259;SDS011;3163;51.516;4.000;2023-07-08T15:03:43;3.38;;;3.08;;
6259;SDS011;3163;51.516;4.000;2023-07-08T15:06:10;2.75;;;2.55;;
6259;SDS011;3163;51.516;4.000;2023-07-08T15:08:35;3.17;;;2.83;;
6259;SDS011;3163;51.516;4.000;2023-07-08T15:11:01;4.97;;;3.40;;
6259;SDS011;3163;51.516;4.000;2023-07-08T15:13:30;6.65;;;3.58;;
6259;SDS011;3163;51.516;4.000;2023-07-08T15:15:57;4.43;;;3.17;;
6259;SDS011;3163;51.516;4.000;2023-07-08T15:18:23;3.85;;;3.17;;
6259;SDS011;3163;51.516;4.000;2023-07-08T15:20:49;3.60;;;3.10;;
6259;SDS011;3163;51.516;4.000;2023-07-08T15:23:15;4.28;;;3.03;;
6259;SDS011;3163;51.516;4.000;2023-07-08T15:25:42;8.38;;;4.88;;
6259;SDS011;3163;51.516;4.000;2023-07-08T15:28:15;2.95;;;2.65;;
6259;SDS011;3163;51.516;4.000;2023-07-08T15:30:44;3.40;;;3.10;;
6259;SDS011;3163;51.516;4.000;2023-07-08T15:33:10;2.95;;;2.67;;
6259;SDS011;3163;51.516;4.000;2023-07-08T15:35:39;2.78;;;2.58;;
6259;SDS011;3163;51.516;4.000;2023-07-08T15:38:05;3.50;;;2.83;;
6259;SDS011;3163;51.516;4.000;2023-07-08T15:40:32;3.25;;;2.80;;
6259;SDS011;3163;51.516;4.000;2023-07-08T15:42:59;3.22;;;2.92;;
6259;SDS011;3163;51.516;4.000;2023-07-08T15:45:34;5.57;;;4.25;;
6259;SDS011;3163;51.516;4.000;2023-07-08T15:48:02;3.90;;;3.50;;
6259;SDS011;3163;51.516;4.000;2023-07-08T15:50:28;4.00;;;3.60;;
6259;SDS011;3163;51.516;4.000;2023-07-08T15:52:54;6.15;;;3.67;;
6259;SDS011;3163;51.516;4.000;2023-07-08T15:55:21;4.00;;;3.28;;
6259;SDS011;3163;51.516;4.000;2023-07-08T15:57:53;3.40;;;3.10;;
6259;SDS011;3163;51.516;4.000;2023-07-08T16:00:23;5.85;;;3.13;;
6259;SDS011;3163;51.516;4.000;2023-07-08T16:02:52;4.20;;;3.50;;
6259;SDS011;3163;51.516;4.000;2023-07-08T16:05:20;3.65;;;3.20;;
6259;SDS011;3163;51.516;4.000;2023-07-08T16:07:49;12.65;;;4.32;;
6259;SDS011;3163;51.516;4.000;2023-07-08T16:10:17;4.00;;;3.63;;
6259;SDS011;3163;51.516;4.000;2023-07-08T16:12:43;7.32;;;3.42;;
6259;SDS011;3163;51.516;4.000;2023-07-08T16:15:14;2.70;;;2.50;;